Time;durP1;ratioP1;P1;durP2;ratioP2;P2;SDS_P1;SDS_P2;PMS_P1;PMS_P2;Temp;Humidity;BMP_temperature;BMP_pressure;BME280_temperature;BME280_humidity;BME280_pressure;Samples;Min_cycle;Max_cycle;Signal;HPM_P1;HPM_P2
2023/08/31 00:00:35;;;;;;;4.72;0.85;;;14.40;93.70;;;;;;5039463;28;20127;-80
2023/08/31 00:03:02;;;;;;;4.15;1.00;;;14.30;93.60;;;;;;5034896;28;20064;-80
2023/08/31 00:05:30;;;;;;;5.43;0.93;;;14.30;93.80;;;;;;5018071;28;20033;-81
2023/08/31 00:07:56;;;;;;;7.20;1.35;;;14.30;94.20;;;;;;5031781;28;20905;-81
2023/08/31 00:10:23;;;;;;;4.82;0.85;;;14.30;93.90;;;;;;5032383;28;20138;-78
2023/08/31 00:12:49;;;;;;;3.75;1.10;;;14.20;93.90;;;;;;5017984;28;20048;-78
2023/08/31 00:15:15;;;;;;;3.80;1.00;;;14.20;94.00;;;;;;5015334;28;20048;-82
2023/08/31 00:17:41;;;;;;;6.97;1.00;;;14.10;94.10;;;;;;5025737;28;20051;-81
2023/08/31 00:20:11;;;;;;;3.80;1.10;;;14.10;94.20;;;;;;5005938;28;20051;-80
2023/08/31 00:22:37;;;;;;;4.90;1.10;;;14.10;94.40;;;;;;5017019;28;20119;-82
2023/08/31 00:25:06;;;;;;;5.25;1.00;;;14.00;94.50;;;;;;5003637;28;20470;-82
2023/08/31 00:27:32;;;;;;;4.75;1.10;;;14.00;94.70;;;;;;5003597;28;20088;-83
2023/08/31 00:29:58;;;;;;;6.80;1.15;;;14.00;94.90;;;;;;5002057;28;20044;-81
2023/08/31 00:32:24;;;;;;;6.30;1.27;;;14.00;95.20;;;;;;5005143;28;21084;-80
2023/08/31 00:34:50;;;;;;;4.63;1.23;;;13.70;95.30;;;;;;5022845;28;20139;-83
2023/08/31 00:37:16;;;;;;;4.95;1.00;;;14.00;95.90;;;;;;5018527;28;20097;-81
2023/08/31 00:39:43;;;;;;;6.20;0.95;;;14.00;96.00;;;;;;5008436;28;20123;-82
2023/08/31 00:42:09;;;;;;;3.95;0.93;;;14.00;96.10;;;;;;5018785;28;20761;-81
2023/08/31 00:44:35;;;;;;;7.50;1.23;;;14.00;96.20;;;;;;5024774;28;20488;-82
2023/08/31 00:47:04;;;;;;;4.78;1.00;;;14.00;96.30;;;;;;5024196;28;20067;-80
2023/08/31 00:49:30;;;;;;;3.53;0.90;;;13.90;96.60;;;;;;5027157;28;20075;-83
2023/08/31 00:51:56;;;;;;;5.10;1.10;;;13.90;96.70;;;;;;5018030;28;20063;-78
2023/08/31 00:54:22;;;;;;;5.85;1.08;;;13.90;96.90;;;;;;5005847;28;20052;-79
2023/08/31 00:56:53;;;;;;;5.82;1.48;;;13.90;97.00;;;;;;5010565;28;20056;-81
2023/08/31 00:59:20;;;;;;;2.63;0.88;;;13.90;97.20;;;;;;5022965;28;20117;-78
2023/08/31 01:02:15;;;;;;;3.88;0.80;;;13.90;97.30;;;;;;5004523;28;20059;-81
2023/08/31 01:05:17;;;;;;;5.82;1.20;;;13.90;97.80;;;;;;5036467;28;20068;-78
2023/08/31 01:07:55;;;;;;;4.20;0.90;;;13.90;97.80;;;;;;5001434;28;20063;-81
2023/08/31 01:10:27;;;;;;;4.93;0.77;;;13.90;97.60;;;;;;5029655;28;20041;-79
2023/08/31 01:13:01;;;;;;;5.45;1.00;;;13.90;97.40;;;;;;5036620;28;20139;-82
2023/08/31 01:15:31;;;;;;;6.30;1.15;;;14.00;97.30;;;;;;5019746;28;20075;-79
2023/08/31 01:17:58;;;;;;;4.18;1.00;;;14.00;97.20;;;;;;5009451;28;20503;-79
2023/08/31 01:20:38;;;;;;;3.17;0.70;;;14.10;97.10;;;;;;5024545;28;20388;-78
2023/08/31 01:23:11;;;;;;;3.45;0.90;;;14.20;97.10;;;;;;5019481;28;20058;-79
2023/08/31 01:25:37;;;;;;;4.22;0.93;;;14.20;97.40;;;;;;5026679;28;20044;-81
2023/08/31 01:28:05;;;;;;;6.53;1.23;;;14.30;97.20;;;;;;5042973;28;20048;-76
2023/08/31 01:30:31;;;;;;;3.92;0.73;;;14.30;97.20;;;;;;5019131;28;20518;-76
2023/08/31 01:32:57;;;;;;;4.65;1.08;;;14.30;97.30;;;;;;5021051;28;20123;-78
2023/08/31 01:35:24;;;;;;;4.65;1.00;;;14.30;97.30;;;;;;5041708;28;20096;-81
2023/08/31 01:37:52;;;;;;;4.82;1.02;;;14.30;97.30;;;;;;5026488;28;20063;-80
2023/08/31 01:40:56;;;;;;;6.05;1.00;;;14.30;97.40;;;;;;5021623;28;20131;-79
2023/08/31 01:43:23;;;;;;;4.15;0.82;;;14.30;98.00;;;;;;5024408;28;20122;-80
2023/08/31 01:45:50;;;;;;;3.03;0.75;;;14.30;97.90;;;;;;5022779;28;20361;-79
2023/08/31 01:48:20;;;;;;;5.03;1.00;;;14.20;97.90;;;;;;4997722;28;20281;-79
2023/08/31 01:50:46;;;;;;;5.85;1.40;;;14.20;98.10;;;;;;5018218;28;20426;-76
2023/08/31 01:53:12;;;;;;;2.97;0.80;;;14.20;98.10;;;;;;5005827;28;20782;-79
2023/08/31 01:55:38;;;;;;;2.95;0.70;;;14.20;98.00;;;;;;5038930;28;20047;-78
2023/08/31 01:58:04;;;;;;;3.25;0.95;;;14.20;97.90;;;;;;4998235;28;20052;-79
2023/08/31 02:00:34;;;;;;;5.20;0.93;;;14.20;97.80;;;;;;5008341;28;20592;-79
2023/08/31 02:03:00;;;;;;;4.70;0.80;;;14.20;97.90;;;;;;5025792;28;20052;-79
2023/08/31 02:05:26;;;;;;;2.78;0.70;;;14.20;97.90;;;;;;5005241;28;20044;-79
2023/08/31 02:07:52;;;;;;;4.45;1.00;;;14.20;97.90;;;;;;5024981;28;20126;-77
2023/08/31 02:10:18;;;;;;;2.17;0.70;;;14.30;97.90;;;;;;5005708;28;20052;-80
2023/08/31 02:12:44;;;;;;;4.82;1.00;;;14.30;97.90;;;;;;5028283;28;20060;-81
2023/08/31 02:15:10;;;;;;;3.03;0.80;;;14.40;97.70;;;;;;5024831;28;20676;-79
2023/08/31 02:17:36;;;;;;;4.38;0.93;;;14.40;97.70;;;;;;5044404;28;21661;-81
2023/08/31 02:20:06;;;;;;;3.72;0.70;;;14.50;97.60;;;;;;5022753;28;20054;-80
2023/08/31 02:22:34;;;;;;;4.40;0.90;;;14.50;97.50;;;;;;5021415;28;20152;-79
2023/08/31 02:25:01;;;;;;;5.43;1.20;;;14.50;97.40;;;;;;5024628;28;20060;-80
2023/08/31 02:27:27;;;;;;;4.05;0.88;;;14.50;97.30;;;;;;5000061;28;22174;-79
2023/08/31 02:29:53;;;;;;;3.90;0.90;;;14.50;97.30;;;;;;5044650;28;20191;-78
2023/08/31 02:32:19;;;;;;;2.72;0.70;;;14.50;97.30;;;;;;5020267;28;20584;-79
2023/08/31 02:34:45;;;;;;;3.72;0.90;;;14.50;97.30;;;;;;4988844;28;20053;-81
2023/08/31 02:37:11;;;;;;;2.72;0.70;;;14.40;97.10;;;;;;5040203;28;20068;-80
2023/08/31 02:39:37;;;;;;;5.70;0.90;;;14.40;96.80;;;;;;5003527;28;20049;-80
2023/08/31 02:42:05;;;;;;;4.10;0.90;;;14.30;96.70;;;;;;5019450;28;20052;-81
2023/08/31 02:44:31;;;;;;;4.55;0.93;;;14.30;96.50;;;;;;5005482;28;20556;-79
2023/08/31 02:46:57;;;;;;;4.70;0.80;;;14.30;96.50;;;;;;5015392;28;20185;-82
2023/08/31 02:49:23;;;;;;;5.18;0.80;;;14.30;96.40;;;;;;4989989;28;20762;-80
2023/08/31 02:51:49;;;;;;;2.83;0.75;;;14.30;96.40;;;;;;5022045;28;20520;-78
2023/08/31 02:54:15;;;;;;;4.40;0.90;;;14.30;96.30;;;;;;5008150;28;20048;-81
2023/08/31 02:56:41;;;;;;;5.03;0.93;;;14.20;96.10;;;;;;5018970;28;20137;-80
2023/08/31 02:59:07;;;;;;;2.92;0.80;;;14.30;95.90;;;;;;5026560;28;20057;-82
2023/08/31 03:01:33;;;;;;;4.47;1.08;;;14.30;95.90;;;;;;5024561;28;20079;-81
2023/08/31 03:03:59;;;;;;;2.25;0.70;;;14.30;95.80;;;;;;5004543;28;20779;-80
2023/08/31 03:06:25;;;;;;;2.40;0.80;;;14.30;95.50;;;;;;5019059;28;20044;-79
2023/08/31 03:08:51;;;;;;;2.55;0.73;;;14.40;95.30;;;;;;5019032;28;20040;-80
2023/08/31 03:11:17;;;;;;;2.80;0.75;;;14.40;95.20;;;;;;5023631;28;20672;-81
2023/08/31 03:13:43;;;;;;;3.92;0.70;;;14.40;95.00;;;;;;5024084;28;20055;-82
2023/08/31 03:16:09;;;;;;;4.30;0.80;;;14.30;94.90;;;;;;5019351;28;20465;-80
2023/08/31 03:18:35;;;;;;;2.70;0.80;;;14.30;94.70;;;;;;5025963;28;20391;-80
2023/08/31 03:21:00;;;;;;;2.72;0.73;;;14.30;94.60;;;;;;5018515;28;20044;-80
2023/08/31 03:23:26;;;;;;;3.17;0.80;;;14.30;94.60;;;;;;5024253;28;20041;-84
2023/08/31 03:25:52;;;;;;;2.47;0.70;;;14.20;94.60;;;;;;5020841;28;20094;-80
2023/08/31 03:28:20;;;;;;;2.60;0.80;;;14.20;94.50;;;;;;5022768;28;20045;-84
2023/08/31 03:30:46;;;;;;;1.80;0.75;;;14.20;94.50;;;;;;5037495;28;20051;-82
2023/08/31 03:33:14;;;;;;;4.00;0.80;;;14.10;94.50;;;;;;5021570;28;20514;-83
2023/08/31 03:35:40;;;;;;;3.28;0.68;;;14.20;94.50;;;;;;5006717;28;20060;-83
2023/08/31 03:38:06;;;;;;;4.85;1.02;;;14.10;94.50;;;;;;5001114;28;20590;-80
2023/08/31 03:40:32;;;;;;;2.92;1.00;;;14.10;94.50;;;;;;5016484;28;20821;-81
2023/08/31 03:42:57;;;;;;;2.10;0.75;;;14.00;94.60;;;;;;4989794;28;20494;-79
2023/08/31 03:45:23;;;;;;;4.63;1.17;;;14.10;94.50;;;;;;5023239;28;20601;-82
2023/08/31 03:47:49;;;;;;;2.45;0.80;;;14.10;94.60;;;;;;5020280;28;20048;-83
2023/08/31 03:50:15;;;;;;;2.17;0.90;;;14.00;94.60;;;;;;5035273;28;20114;-82
2023/08/31 03:52:41;;;;;;;3.65;1.00;;;14.00;94.60;;;;;;5021209;28;21859;-82
2023/08/31 03:55:07;;;;;;;5.38;0.93;;;14.00;94.60;;;;;;5018531;28;20040;-82
2023/08/31 03:57:33;;;;;;;5.88;1.00;;;14.00;94.50;;;;;;5019603;28;20163;-82
2023/08/31 03:59:58;;;;;;;3.22;0.80;;;14.00;94.40;;;;;;5021393;28;20045;-80
2023/08/31 04:02:24;;;;;;;3.08;0.80;;;14.00;94.30;;;;;;5020468;28;22084;-79
2023/08/31 04:04:50;;;;;;;3.70;0.93;;;14.00;94.20;;;;;;5034077;28;20210;-80
2023/08/31 04:07:16;;;;;;;1.95;0.65;;;14.00;94.10;;;;;;5016982;28;20075;-83
2023/08/31 04:09:41;;;;;;;3.10;0.80;;;14.00;94.00;;;;;;4996847;28;20055;-79
2023/08/31 04:12:07;;;;;;;3.92;0.98;;;14.00;93.80;;;;;;5000398;28;20036;-82
2023/08/31 04:14:33;;;;;;;4.75;1.02;;;14.00;93.70;;;;;;5016300;28;20074;-81
2023/08/31 04:16:59;;;;;;;3.08;1.00;;;14.00;93.90;;;;;;5018845;28;20049;-77
2023/08/31 04:19:25;;;;;;;2.85;0.82;;;14.00;93.70;;;;;;5002230;28;20040;-83
2023/08/31 04:21:51;;;;;;;3.88;0.80;;;14.00;93.60;;;;;;5006234;28;20144;-79
2023/08/31 04:24:16;;;;;;;4.65;1.00;;;14.00;93.50;;;;;;5002608;28;20729;-81
2023/08/31 04:26:44;;;;;;;7.72;1.73;;;14.00;93.40;;;;;;5001774;28;20044;-79
2023/08/31 04:29:10;;;;;;;3.05;0.90;;;14.00;93.30;;;;;;5019026;28;20254;-79
2023/08/31 04:31:37;;;;;;;3.63;0.90;;;14.00;93.20;;;;;;5004487;28;20052;-81
2023/08/31 04:34:04;;;;;;;4.72;0.80;;;14.00;93.40;;;;;;5021171;28;21005;-84
2023/08/31 04:36:30;;;;;;;3.75;0.95;;;14.00;93.60;;;;;;5002027;28;20084;-77
2023/08/31 04:38:55;;;;;;;4.03;0.88;;;14.20;93.90;;;;;;5002587;28;20070;-77
2023/08/31 04:41:21;;;;;;;6.32;1.13;;;14.10;94.00;;;;;;5011249;28;20367;-79
2023/08/31 04:43:50;;;;;;;4.05;0.80;;;14.10;94.10;;;;;;5002080;28;20040;-80
2023/08/31 04:46:16;;;;;;;3.38;0.70;;;14.00;94.10;;;;;;5004854;28;20223;-77
2023/08/31 04:48:42;;;;;;;4.63;1.00;;;14.00;94.20;;;;;;5017548;28;20040;-77
2023/08/31 04:51:26;;;;;;;4.25;0.80;;;14.00;94.30;;;;;;5000147;28;20521;-79
2023/08/31 04:53:52;;;;;;;2.63;0.80;;;14.00;94.30;;;;;;5018661;28;20181;-79
2023/08/31 04:56:18;;;;;;;3.22;0.80;;;14.00;94.10;;;;;;4994300;28;20048;-81
2023/08/31 04:58:44;;;;;;;6.28;0.80;;;14.00;93.90;;;;;;5001038;28;20073;-78
2023/08/31 05:01:09;;;;;;;5.25;0.70;;;14.10;93.60;;;;;;5035641;28;20986;-80
2023/08/31 05:03:35;;;;;;;1.95;0.50;;;14.10;93.30;;;;;;5016289;28;20040;-79
2023/08/31 05:06:04;;;;;;;3.83;0.73;;;14.10;92.80;;;;;;5016344;28;20446;-79
2023/08/31 05:08:30;;;;;;;2.72;0.85;;;14.20;92.60;;;;;;5019120;28;20048;-80
2023/08/31 05:10:56;;;;;;;3.75;0.70;;;14.30;92.40;;;;;;5017663;28;20657;-81
2023/08/31 05:13:22;;;;;;;4.90;0.85;;;14.30;92.20;;;;;;5038452;28;20430;-81
2023/08/31 05:15:47;;;;;;;4.15;0.80;;;14.30;92.20;;;;;;5002536;28;20045;-81
2023/08/31 05:18:13;;;;;;;4.32;0.70;;;14.50;92.10;;;;;;5004204;28;20053;-80
2023/08/31 05:20:39;;;;;;;3.55;0.90;;;14.40;92.10;;;;;;5002879;28;20048;-82
2023/08/31 05:23:05;;;;;;;1.10;0.63;;;14.40;92.20;;;;;;5006053;28;20113;-80
2023/08/31 05:25:30;;;;;;;3.55;0.80;;;14.40;92.30;;;;;;5020607;28;20048;-77
2023/08/31 05:27:56;;;;;;;3.53;0.70;;;14.50;92.30;;;;;;5024999;28;20052;-76
2023/08/31 05:30:22;;;;;;;5.78;0.70;;;14.50;92.20;;;;;;5029594;28;20036;-78
2023/08/31 05:32:49;;;;;;;3.50;0.85;;;14.50;92.00;;;;;;5027306;28;20135;-77
2023/08/31 05:35:15;;;;;;;2.85;0.60;;;14.50;92.00;;;;;;5033698;28;20040;-77
2023/08/31 05:37:41;;;;;;;1.10;0.60;;;14.50;92.00;;;;;;5036237;28;20052;-76
2023/08/31 05:40:10;;;;;;;1.92;0.55;;;14.50;91.90;;;;;;5032489;28;20107;-77
2023/08/31 05:42:36;;;;;;;1.40;0.60;;;14.60;91.90;;;;;;5017988;28;20072;-76
2023/08/31 05:45:02;;;;;;;3.03;0.63;;;14.60;91.80;;;;;;5041986;28;20385;-76
2023/08/31 05:47:28;;;;;;;3.15;0.70;;;14.60;91.60;;;;;;5037269;28;20127;-78
2023/08/31 05:49:54;;;;;;;2.65;0.60;;;14.70;91.30;;;;;;5035349;28;20057;-77
2023/08/31 05:52:19;;;;;;;2.78;0.68;;;14.70;91.10;;;;;;5033202;28;20060;-79
2023/08/31 05:54:45;;;;;;;2.67;0.60;;;14.80;90.90;;;;;;5017979;28;20037;-78
2023/08/31 05:57:11;;;;;;;3.15;0.77;;;14.80;90.90;;;;;;5024813;28;20044;-77
2023/08/31 05:59:37;;;;;;;2.28;0.80;;;14.90;90.80;;;;;;5037524;28;20044;-76
2023/08/31 06:02:04;;;;;;;2.33;0.60;;;15.00;90.80;;;;;;5005060;28;20045;-77
2023/08/31 06:04:30;;;;;;;2.78;0.80;;;15.00;90.60;;;;;;5016097;28;20056;-77
2023/08/31 06:06:56;;;;;;;1.52;0.70;;;15.10;90.30;;;;;;5029886;28;20492;-80
2023/08/31 06:09:22;;;;;;;2.78;0.98;;;15.20;90.00;;;;;;5014635;28;20059;-79
2023/08/31 06:11:48;;;;;;;2.75;0.70;;;16.00;90.00;;;;;;4978049;28;20052;-78
2023/08/31 06:14:14;;;;;;;3.30;1.00;;;15.30;90.00;;;;;;5011757;28;20053;-79
2023/08/31 06:16:39;;;;;;;3.00;0.95;;;15.30;90.30;;;;;;5048615;28;20574;-78
2023/08/31 06:19:05;;;;;;;1.15;0.57;;;15.40;90.70;;;;;;5031851;28;20060;-79
2023/08/31 06:21:31;;;;;;;2.90;0.70;;;15.40;91.10;;;;;;5030330;28;20515;-78
2023/08/31 06:23:57;;;;;;;2.33;0.85;;;15.30;91.30;;;;;;5049019;28;20045;-78
2023/08/31 06:26:23;;;;;;;2.22;0.77;;;15.30;91.30;;;;;;5028459;28;20272;-79
2023/08/31 06:28:49;;;;;;;4.30;0.95;;;15.30;91.10;;;;;;5027372;28;20546;-78
2023/08/31 06:31:15;;;;;;;1.65;0.60;;;15.30;91.20;;;;;;5047872;28;20479;-78
2023/08/31 06:33:40;;;;;;;2.42;0.93;;;15.30;91.20;;;;;;5029625;28;20051;-79
2023/08/31 06:36:06;;;;;;;2.13;0.63;;;15.30;91.30;;;;;;4995940;28;20624;-79
2023/08/31 06:38:32;;;;;;;2.30;0.80;;;15.30;91.30;;;;;;5013044;28;20051;-79
2023/08/31 06:40:59;;;;;;;4.05;0.80;;;15.40;91.40;;;;;;5026195;28;20045;-78
2023/08/31 06:43:26;;;;;;;3.08;0.70;;;15.40;91.30;;;;;;5028722;28;20045;-78
2023/08/31 06:45:53;;;;;;;3.20;1.20;;;15.50;91.20;;;;;;5030682;28;20052;-79
2023/08/31 06:48:19;;;;;;;2.00;0.80;;;15.50;91.10;;;;;;5051241;28;20644;-78
2023/08/31 06:50:46;;;;;;;3.70;0.98;;;15.60;90.70;;;;;;5032892;28;20071;-78
2023/08/31 06:53:12;;;;;;;1.60;0.68;;;15.60;90.30;;;;;;5033318;28;20044;-79
2023/08/31 06:55:38;;;;;;;0.70;0.47;;;15.70;90.00;;;;;;5036925;28;20060;-79
2023/08/31 06:58:04;;;;;;;7.05;1.15;;;15.80;89.30;;;;;;5033108;28;20957;-79
2023/08/31 07:00:32;;;;;;;2.35;0.63;;;15.80;88.60;;;;;;5034973;28;20087;-79
2023/08/31 07:02:58;;;;;;;2.45;0.60;;;15.90;88.40;;;;;;5031120;28;22573;-76
2023/08/31 07:05:25;;;;;;;3.33;0.80;;;16.10;87.50;;;;;;5034789;28;20052;-79
2023/08/31 07:07:55;;;;;;;3.10;0.88;;;16.20;87.00;;;;;;5035102;28;20044;-79
2023/08/31 07:10:21;;;;;;;2.88;0.68;;;16.40;87.60;;;;;;5052319;28;20060;-79
2023/08/31 07:12:47;;;;;;;2.33;0.70;;;16.50;87.50;;;;;;5017320;28;20153;-78
2023/08/31 07:15:13;;;;;;;3.17;0.80;;;16.70;86.60;;;;;;5033217;28;20125;-79
2023/08/31 07:17:39;;;;;;;2.80;0.70;;;16.80;85.00;;;;;;5020484;28;20127;-78
2023/08/31 07:20:05;;;;;;;3.35;0.75;;;16.80;83.30;;;;;;5051408;28;20048;-78
2023/08/31 07:22:33;;;;;;;2.05;0.73;;;16.70;82.90;;;;;;5049584;28;20926;-78
2023/08/31 07:24:59;;;;;;;3.28;0.80;;;16.70;82.90;;;;;;5032679;28;20734;-79
2023/08/31 07:27:25;;;;;;;2.40;0.80;;;16.60;82.90;;;;;;5051633;28;20063;-78
2023/08/31 07:29:54;;;;;;;3.05;0.90;;;16.50;83.70;;;;;;5053626;28;20044;-79
2023/08/31 07:32:20;;;;;;;3.38;0.80;;;16.50;85.40;;;;;;5032469;28;20128;-78
2023/08/31 07:34:45;;;;;;;3.63;0.80;;;16.40;87.40;;;;;;5041015;28;20554;-79
2023/08/31 07:37:11;;;;;;;5.05;0.93;;;16.40;88.20;;;;;;5007777;28;20515;-78
2023/08/31 07:39:37;;;;;;;3.58;1.00;;;16.50;87.10;;;;;;5039699;28;20131;-79
2023/08/31 07:42:04;;;;;;;6.80;1.17;;;16.60;86.80;;;;;;5038349;28;20052;-79
2023/08/31 07:44:31;;;;;;;2.88;1.10;;;16.70;86.90;;;;;;5026482;28;20060;-78
2023/08/31 07:46:56;;;;;;;5.63;1.00;;;16.90;86.10;;;;;;5021805;28;20123;-78
2023/08/31 07:49:22;;;;;;;4.03;0.90;;;17.00;85.00;;;;;;5041085;28;20055;-79
2023/08/31 07:51:48;;;;;;;4.65;0.90;;;17.00;85.00;;;;;;5039506;28;20036;-79
2023/08/31 07:54:21;;;;;;;5.75;1.20;;;17.00;85.80;;;;;;5040627;28;20047;-79
2023/08/31 07:56:46;;;;;;;3.17;0.77;;;17.00;86.00;;;;;;5021487;28;20052;-79
2023/08/31 07:59:12;;;;;;;1.95;0.70;;;16.90;85.40;;;;;;5038039;28;20162;-79
2023/08/31 08:01:38;;;;;;;4.47;0.73;;;16.80;84.60;;;;;;5037674;28;20053;-80
2023/08/31 08:04:04;;;;;;;2.22;0.85;;;16.80;84.80;;;;;;5042604;28;20063;-79
2023/08/31 08:06:29;;;;;;;3.80;0.93;;;16.90;83.20;;;;;;5022758;28;20507;-79
2023/08/31 08:08:55;;;;;;;2.17;0.75;;;17.00;80.60;;;;;;5023291;28;20183;-79
2023/08/31 08:11:22;;;;;;;2.97;0.80;;;17.30;76.80;;;;;;5024354;28;20052;-79
2023/08/31 08:13:48;;;;;;;4.97;0.90;;;17.50;72.80;;;;;;5039489;28;20128;-79
2023/08/31 08:16:14;;;;;;;2.45;0.60;;;17.70;68.30;;;;;;5042339;28;20059;-79
2023/08/31 08:18:40;;;;;;;2.95;0.88;;;17.80;64.70;;;;;;5039886;28;20637;-79
2023/08/31 08:21:06;;;;;;;1.90;0.70;;;18.00;60.50;;;;;;5040844;28;20048;-79
2023/08/31 08:23:33;;;;;;;1.00;0.50;;;18.30;57.30;;;;;;5039785;28;20044;-79
2023/08/31 08:26:01;;;;;;;2.05;0.75;;;18.40;53.50;;;;;;5057994;28;20048;-79
2023/08/31 08:28:28;;;;;;;2.30;0.70;;;18.60;53.90;;;;;;5024099;28;20066;-79
2023/08/31 08:30:54;;;;;;;5.18;1.00;;;18.60;51.30;;;;;;5041965;28;20135;-79
2023/08/31 08:33:19;;;;;;;1.77;0.90;;;18.80;52.50;;;;;;5022460;28;20058;-79
2023/08/31 08:35:46;;;;;;;3.53;0.93;;;19.00;53.20;;;;;;5040339;28;20052;-79
2023/08/31 08:38:12;;;;;;;2.85;0.80;;;19.20;52.40;;;;;;5061562;28;20064;-79
2023/08/31 08:40:38;;;;;;;1.92;0.90;;;19.40;50.10;;;;;;5040783;28;20057;-79
2023/08/31 08:43:09;;;;;;;3.55;1.10;;;19.60;45.50;;;;;;5037889;28;20395;-80
2023/08/31 08:45:38;;;;;;;1.98;0.70;;;19.90;43.30;;;;;;5041177;28;20056;-79
2023/08/31 08:48:08;;;;;;;2.03;0.65;;;19.90;39.30;;;;;;5040696;28;20045;-79
2023/08/31 08:50:36;;;;;;;2.90;0.60;;;20.00;35.60;;;;;;5027393;28;20055;-79
2023/08/31 08:53:03;;;;;;;2.58;0.60;;;20.10;32.00;;;;;;5028782;28;20503;-79
2023/08/31 08:55:29;;;;;;;3.05;0.60;;;20.10;28.10;;;;;;5046866;28;20094;-79
2023/08/31 08:57:55;;;;;;;6.95;1.02;;;20.20;29.50;;;;;;5030949;28;20044;-79
2023/08/31 09:00:21;;;;;;;3.20;0.80;;;20.20;37.70;;;;;;5045211;28;20052;-79
2023/08/31 09:02:47;;;;;;;3.58;0.80;;;20.20;46.70;;;;;;5028406;28;20067;-79
2023/08/31 09:05:13;;;;;;;4.00;1.00;;;20.00;48.70;;;;;;5044357;28;20044;-79
2023/08/31 09:07:59;;;;;;;3.83;0.80;;;19.80;50.70;;;;;;5062346;28;20374;-80
2023/08/31 09:10:32;;;;;;;3.88;0.90;;;19.80;54.10;;;;;;5060360;28;20057;-79
2023/08/31 09:13:00;;;;;;;2.88;0.88;;;20.00;54.30;;;;;;5037673;28;20050;-80
2023/08/31 09:15:26;;;;;;;2.72;0.77;;;20.30;48.60;;;;;;5042543;28;20442;-80
2023/08/31 09:17:52;;;;;;;3.10;0.90;;;20.50;41.40;;;;;;5042176;28;20429;-80
2023/08/31 09:20:17;;;;;;;4.38;0.80;;;20.60;33.80;;;;;;5041178;28;20165;-79
2023/08/31 09:22:48;;;;;;;3.75;0.98;;;20.70;32.60;;;;;;5041277;28;20044;-81
2023/08/31 09:25:17;;;;;;;2.63;0.77;;;20.70;30.70;;;;;;5049353;28;20135;-81
2023/08/31 09:27:44;;;;;;;1.77;0.77;;;20.80;30.40;;;;;;5043776;28;20440;-81
2023/08/31 09:30:11;;;;;;;4.07;0.90;;;20.50;31.40;;;;;;5028711;28;20044;-81
2023/08/31 09:32:37;;;;;;;4.13;1.02;;;20.30;38.90;;;;;;5062780;28;20689;-81
2023/08/31 09:35:08;;;;;;;3.53;0.60;;;20.10;46.10;;;;;;5061598;28;20068;-80
2023/08/31 09:37:34;;;;;;;3.10;0.80;;;19.80;48.00;;;;;;5042878;28;20057;-80
2023/08/31 09:40:03;;;;;;;3.80;1.10;;;19.60;48.40;;;;;;5054685;28;20519;-80
2023/08/31 09:42:40;;;;;;;8.07;1.00;;;19.30;50.30;;;;;;5005754;28;20106;-80
2023/08/31 09:45:06;;;;;;;3.10;1.00;;;19.40;56.10;;;;;;5022723;28;20056;-80
2023/08/31 09:47:32;;;;;;;3.28;1.30;;;19.70;57.80;;;;;;5035456;28;20805;-80
2023/08/31 09:49:59;;;;;;;2.40;0.75;;;20.00;57.70;;;;;;5052326;28;20106;-79
2023/08/31 09:52:26;;;;;;;4.10;0.90;;;20.30;55.50;;;;;;5024672;28;20040;-81
2023/08/31 09:54:54;;;;;;;3.05;1.10;;;20.30;51.30;;;;;;5043235;28;20059;-81
2023/08/31 09:57:21;;;;;;;3.35;1.02;;;20.40;45.50;;;;;;5040095;28;20080;-81
2023/08/31 09:59:48;;;;;;;2.03;0.90;;;20.60;41.80;;;;;;5050529;28;20135;-81
2023/08/31 10:02:17;;;;;;;4.85;1.00;;;20.70;39.50;;;;;;5035524;28;20091;-81
2023/08/31 10:04:44;;;;;;;1.83;0.75;;;20.80;39.20;;;;;;5036912;28;20727;-80
2023/08/31 10:07:13;;;;;;;3.22;0.98;;;20.90;34.30;;;;;;5001553;28;20044;-80
2023/08/31 10:09:39;;;;;;;2.13;0.70;;;21.10;28.90;;;;;;5021052;28;20372;-81
2023/08/31 10:12:06;;;;;;;1.85;0.82;;;21.20;27.00;;;;;;4986971;28;20090;-80
2023/08/31 10:14:32;;;;;;;2.72;0.65;;;21.40;27.30;;;;;;5020549;28;20459;-81
2023/08/31 10:16:58;;;;;;;2.63;0.80;;;21.70;25.60;;;;;;5039327;28;20095;-80
2023/08/31 10:19:24;;;;;;;3.00;0.90;;;22.00;21.00;;;;;;5018951;28;20076;-81
2023/08/31 10:21:50;;;;;;;1.92;0.68;;;22.20;15.80;;;;;;5034159;28;20469;-80
2023/08/31 10:24:16;;;;;;;2.22;0.80;;;22.30;6.40;;;;;;5001534;28;20046;-79
2023/08/31 10:26:42;;;;;;;3.92;0.80;;;22.20;4.10;;;;;;5037436;28;20426;-81
2023/08/31 10:29:25;;;;;;;3.58;0.82;;;22.40;1.00;;;;;;5052365;28;20048;-82
2023/08/31 10:31:52;;;;;;;2.40;0.90;;;22.70;1.00;;;;;;5056470;28;20178;-81
2023/08/31 10:34:35;;;;;;;2.00;0.75;;;23.00;1.00;;;;;;5035678;28;20060;-81
2023/08/31 10:37:03;;;;;;;4.03;0.90;;;22.90;1.00;;;;;;5036414;28;20051;-81
2023/08/31 10:39:39;;;;;;;3.72;1.08;;;23.00;1.00;;;;;;5050000;28;20499;-81
2023/08/31 10:42:05;;;;;;;4.20;0.82;;;23.30;1.00;;;;;;5026954;28;20072;-81
2023/08/31 10:44:31;;;;;;;3.58;0.80;;;23.20;1.00;;;;;;5035684;28;20480;-81
2023/08/31 10:47:03;;;;;;;2.40;0.90;;;22.80;1.00;;;;;;5019822;28;20048;-81
2023/08/31 10:49:29;;;;;;;4.78;1.05;;;22.40;1.00;;;;;;5036400;28;20047;-81
2023/08/31 10:51:57;;;;;;;3.58;0.90;;;22.00;1.00;;;;;;5020272;28;20040;-81
2023/08/31 10:54:37;;;;;;;2.47;0.80;;;21.80;1.00;;;;;;5044155;28;20059;-81
2023/08/31 10:57:07;;;;;;;5.13;1.15;;;21.70;1.00;;;;;;5031553;28;20050;-81
2023/08/31 10:59:52;;;;;;;3.88;1.00;;;21.70;1.00;;;;;;5034962;28;20121;-81
2023/08/31 11:02:33;;;;;;;3.53;1.30;;;21.80;1.00;;;;;;5037455;28;20059;-81
2023/08/31 11:05:12;;;;;;;5.18;0.75;;;22.20;1.00;;;;;;5049631;28;20133;-81
2023/08/31 11:07:46;;;;;;;3.90;1.20;;;22.50;1.00;;;;;;5053615;28;20048;-81
2023/08/31 11:10:19;;;;;;;4.25;1.23;;;22.90;1.00;;;;;;5030492;28;20036;-82
2023/08/31 11:12:52;;;;;;;3.13;0.93;;;23.10;1.00;;;;;;5037601;28;20052;-80
2023/08/31 11:15:19;;;;;;;3.83;0.93;;;23.20;1.00;;;;;;5053655;28;20075;-81
2023/08/31 11:17:49;;;;;;;3.58;0.88;;;23.30;1.00;;;;;;5028071;28;20114;-81
2023/08/31 11:20:17;;;;;;;3.13;0.90;;;23.50;1.00;;;;;;5020735;28;20075;-80
2023/08/31 11:22:54;;;;;;;4.43;1.15;;;23.60;1.00;;;;;;5019424;28;20041;-82
2023/08/31 11:25:23;;;;;;;2.67;1.08;;;23.90;1.00;;;;;;5022697;28;20547;-81
2023/08/31 11:28:06;;;;;;;5.38;1.10;;;24.00;1.00;;;;;;5029574;28;20048;-80
2023/08/31 11:30:33;;;;;;;3.78;1.08;;;23.90;1.00;;;;;;5013024;28;20044;-81
2023/08/31 11:33:11;;;;;;;5.00;1.48;;;23.70;1.00;;;;;;5013059;28;20044;-80
2023/08/31 11:35:43;;;;;;;5.97;0.98;;;23.80;1.00;;;;;;5018904;28;20094;-81
2023/08/31 11:38:09;;;;;;;5.10;1.30;;;23.90;1.00;;;;;;5053563;28;20086;-82
2023/08/31 11:40:36;;;;;;;4.78;1.38;;;23.90;1.00;;;;;;5037602;28;20049;-80
2023/08/31 11:43:04;;;;;;;5.78;1.45;;;23.40;1.00;;;;;;5021464;28;21377;-80
2023/08/31 11:45:31;;;;;;;4.82;1.52;;;22.70;1.00;;;;;;5030446;28;20471;-80
2023/08/31 11:47:58;;;;;;;3.95;0.95;;;22.30;3.00;;;;;;5017079;28;20053;-80
2023/08/31 11:50:24;;;;;;;4.88;1.38;;;21.80;13.90;;;;;;5038327;28;20094;-80
2023/08/31 11:52:53;;;;;;;4.20;1.05;;;21.40;24.60;;;;;;5041121;28;20044;-79
2023/08/31 11:55:20;;;;;;;4.43;1.23;;;21.10;31.80;;;;;;5029472;28;20395;-79
2023/08/31 11:57:54;;;;;;;4.32;1.38;;;20.90;38.50;;;;;;5030315;28;20366;-80
2023/08/31 12:00:21;;;;;;;3.55;1.00;;;20.60;37.80;;;;;;5032510;28;20046;-80
2023/08/31 12:03:04;;;;;;;4.65;1.10;;;20.30;38.90;;;;;;5035255;28;20052;-79
2023/08/31 12:05:45;;;;;;;5.95;1.10;;;20.40;43.70;;;;;;5033110;28;20067;-78
2023/08/31 12:08:11;;;;;;;5.65;1.30;;;20.50;39.30;;;;;;5047505;28;20591;-79
2023/08/31 12:10:41;;;;;;;4.63;1.30;;;20.50;37.40;;;;;;5030460;28;20052;-80
2023/08/31 12:13:12;;;;;;;5.50;1.33;;;20.70;35.90;;;;;;5018880;28;20053;-78
2023/08/31 12:15:38;;;;;;;3.72;1.20;;;21.20;37.50;;;;;;5005709;28;20052;-80
2023/08/31 12:18:11;;;;;;;2.50;1.02;;;21.60;29.30;;;;;;5032106;28;20395;-80
2023/08/31 12:20:50;;;;;;;2.22;0.90;;;22.00;20.80;;;;;;5033419;28;20079;-80
2023/08/31 12:23:17;;;;;;;4.60;1.20;;;22.10;9.70;;;;;;5025044;28;20135;-80
2023/08/31 12:25:51;;;;;;;4.93;1.15;;;22.30;7.10;;;;;;5023657;28;20117;-80
2023/08/31 12:28:18;;;;;;;3.78;1.10;;;22.20;3.20;;;;;;5026382;28;20128;-80
2023/08/31 12:30:56;;;;;;;7.40;1.60;;;22.00;6.20;;;;;;5039597;28;20040;-80
2023/08/31 12:33:22;;;;;;;3.78;0.98;;;22.20;14.60;;;;;;5040812;28;20322;-80
2023/08/31 12:35:48;;;;;;;4.05;1.23;;;22.00;7.90;;;;;;5039413;28;20594;-80
2023/08/31 12:38:14;;;;;;;6.68;1.35;;;21.80;7.30;;;;;;5049607;28;20052;-80
2023/08/31 12:40:40;;;;;;;3.65;1.13;;;21.60;12.30;;;;;;5057681;28;20753;-80
2023/08/31 12:43:06;;;;;;;2.85;0.88;;;21.60;13.60;;;;;;5023556;28;20056;-80
2023/08/31 12:45:33;;;;;;;7.68;1.40;;;21.70;10.80;;;;;;5038500;28;20635;-80
2023/08/31 12:48:03;;;;;;;4.80;0.85;;;22.00;12.40;;;;;;5022199;28;20052;-80
2023/08/31 12:50:29;;;;;;;5.25;0.95;;;22.10;10.60;;;;;;5022985;28;20403;-80